sensor_id;sensor_type;location;lat;lon;timestamp;P1;durP1;ratioP1;P2;durP2;ratioP2
9398;SDS011;4739;49.334;8.792;2022-08-19T00:01:05;15.50;;;13.97;;
9398;SDS011;4739;49.334;8.792;2022-08-19T00:03:31;16.17;;;14.57;;
9398;SDS011;4739;49.334;8.792;2022-08-19T00:05:57;15.03;;;13.83;;
9398;SDS011;4739;49.334;8.792;2022-08-19T00:08:24;15.50;;;14.20;;
9398;SDS011;4739;49.334;8.792;2022-08-19T00:10:50;15.00;;;13.70;;
9398;SDS011;4739;49.334;8.792;2022-08-19T00:13:17;15.13;;;13.83;;
9398;SDS011;4739;49.334;8.792;2022-08-19T00:15:43;15.20;;;13.80;;
9398;SDS011;4739;49.334;8.792;2022-08-19T00:18:10;15.53;;;14.20;;
9398;SDS011;4739;49.334;8.792;2022-08-19T00:20:36;14.80;;;13.50;;
9398;SDS011;4739;49.334;8.792;2022-08-19T00:23:05;15.10;;;13.60;;
9398;SDS011;4739;49.334;8.792;2022-08-19T00:25:31;14.90;;;13.50;;
9398;SDS011;4739;49.334;8.792;2022-08-19T00:27:57;14.83;;;13.43;;
9398;SDS011;4739;49.334;8.792;2022-08-19T00:30:24;15.20;;;13.80;;
9398;SDS011;4739;49.334;8.792;2022-08-19T00:32:52;14.83;;;13.53;;
9398;SDS011;4739;49.334;8.792;2022-08-19T00:35:20;15.07;;;13.67;;
9398;SDS011;4739;49.334;8.792;2022-08-19T00:37:47;15.30;;;14.00;;
9398;SDS011;4739;49.334;8.792;2022-08-19T00:40:13;15.60;;;14.10;;
9398;SDS011;4739;49.334;8.792;2022-08-19T00:42:39;14.77;;;13.47;;
9398;SDS011;4739;49.334;8.792;2022-08-19T00:45:11;15.20;;;13.83;;
9398;SDS011;4739;49.334;8.792;2022-08-19T00:47:38;14.40;;;13.10;;
9398;SDS011;4739;49.334;8.792;2022-08-19T00:50:04;14.13;;;12.83;;
9398;SDS011;4739;49.334;8.792;2022-08-19T00:52:32;14.17;;;12.97;;
9398;SDS011;4739;49.334;8.792;2022-08-19T00:54:59;14.43;;;13.17;;
9398;SDS011;4739;49.334;8.792;2022-08-19T00:57:44;14.33;;;13.13;;
9398;SDS011;4739;49.334;8.792;2022-08-19T01:00:13;14.87;;;13.57;;
9398;SDS011;4739;49.334;8.792;2022-08-19T01:02:39;15.70;;;14.07;;
9398;SDS011;4739;49.334;8.792;2022-08-19T01:05:06;15.77;;;14.00;;
9398;SDS011;4739;49.334;8.792;2022-08-19T01:07:34;15.23;;;13.83;;
9398;SDS011;4739;49.334;8.792;2022-08-19T01:10:00;14.90;;;13.60;;
9398;SDS011;4739;49.334;8.792;2022-08-19T01:12:26;14.03;;;12.73;;
9398;SDS011;4739;49.334;8.792;2022-08-19T01:14:52;14.27;;;12.97;;
9398;SDS011;4739;49.334;8.792;2022-08-19T01:17:19;14.10;;;12.80;;
9398;SDS011;4739;49.334;8.792;2022-08-19T01:19:45;14.23;;;12.93;;
9398;SDS011;4739;49.334;8.792;2022-08-19T01:22:14;15.10;;;13.70;;
9398;SDS011;4739;49.334;8.792;2022-08-19T01:24:42;15.10;;;13.80;;
9398;SDS011;4739;49.334;8.792;2022-08-19T01:27:08;15.70;;;14.30;;
9398;SDS011;4739;49.334;8.792;2022-08-19T01:29:34;14.20;;;12.90;;
9398;SDS011;4739;49.334;8.792;2022-08-19T01:32:02;14.50;;;13.20;;
9398;SDS011;4739;49.334;8.792;2022-08-19T01:34:28;15.80;;;14.33;;
9398;SDS011;4739;49.334;8.792;2022-08-19T01:36:54;15.03;;;13.73;;
9398;SDS011;4739;49.334;8.792;2022-08-19T01:39:22;16.30;;;14.80;;
9398;SDS011;4739;49.334;8.792;2022-08-19T01:41:48;16.00;;;14.50;;
9398;SDS011;4739;49.334;8.792;2022-08-19T01:44:14;13.73;;;12.53;;
9398;SDS011;4739;49.334;8.792;2022-08-19T01:46:41;15.33;;;13.93;;
9398;SDS011;4739;49.334;8.792;2022-08-19T01:49:07;15.50;;;14.20;;
9398;SDS011;4739;49.334;8.792;2022-08-19T01:51:33;15.93;;;14.53;;
9398;SDS011;4739;49.334;8.792;2022-08-19T01:54:00;15.93;;;14.43;;
9398;SDS011;4739;49.334;8.792;2022-08-19T01:56:26;15.93;;;14.33;;
9398;SDS011;4739;49.334;8.792;2022-08-19T01:58:57;16.77;;;15.07;;
9398;SDS011;4739;49.334;8.792;2022-08-19T02:01:23;15.07;;;13.77;;
9398;SDS011;4739;49.334;8.792;2022-08-19T02:03:49;15.40;;;13.80;;
9398;SDS011;4739;49.334;8.792;2022-08-19T02:06:16;16.27;;;14.87;;
9398;SDS011;4739;49.334;8.792;2022-08-19T02:08:42;15.53;;;14.03;;
9398;SDS011;4739;49.334;8.792;2022-08-19T02:11:18;15.83;;;14.37;;
9398;SDS011;4739;49.334;8.792;2022-08-19T02:13:45;16.13;;;14.73;;
9398;SDS011;4739;49.334;8.792;2022-08-19T02:16:11;15.03;;;13.63;;
9398;SDS011;4739;49.334;8.792;2022-08-19T02:18:37;16.20;;;14.50;;
9398;SDS011;4739;49.334;8.792;2022-08-19T02:21:03;15.53;;;14.03;;
9398;SDS011;4739;49.334;8.792;2022-08-19T02:23:29;16.80;;;15.20;;
9398;SDS011;4739;49.334;8.792;2022-08-19T02:25:55;16.27;;;14.87;;
9398;SDS011;4739;49.334;8.792;2022-08-19T02:28:21;16.83;;;15.23;;
9398;SDS011;4739;49.334;8.792;2022-08-19T02:30:47;15.70;;;14.30;;
9398;SDS011;4739;49.334;8.792;2022-08-19T02:33:13;14.83;;;13.60;;
9398;SDS011;4739;49.334;8.792;2022-08-19T02:35:43;15.40;;;14.00;;
9398;SDS011;4739;49.334;8.792;2022-08-19T02:38:09;14.60;;;13.20;;
9398;SDS011;4739;49.334;8.792;2022-08-19T02:40:51;14.87;;;13.57;;
9398;SDS011;4739;49.334;8.792;2022-08-19T02:43:18;15.50;;;14.10;;
9398;SDS011;4739;49.334;8.792;2022-08-19T02:45:45;15.57;;;14.17;;
9398;SDS011;4739;49.334;8.792;2022-08-19T02:50:39;14.70;;;13.40;;
9398;SDS011;4739;49.334;8.792;2022-08-19T02:53:06;15.20;;;13.80;;
9398;SDS011;4739;49.334;8.792;2022-08-19T02:55:33;15.97;;;14.57;;
9398;SDS011;4739;49.334;8.792;2022-08-19T02:57:59;15.87;;;14.33;;
9398;SDS011;4739;49.334;8.792;2022-08-19T03:00:26;15.90;;;14.40;;
9398;SDS011;4739;49.334;8.792;2022-08-19T03:02:52;16.33;;;14.93;;
9398;SDS011;4739;49.334;8.792;2022-08-19T03:05:18;16.70;;;15.20;;
9398;SDS011;4739;49.334;8.792;2022-08-19T03:07:44;16.53;;;14.93;;
9398;SDS011;4739;49.334;8.792;2022-08-19T03:10:11;16.30;;;14.80;;
9398;SDS011;4739;49.334;8.792;2022-08-19T03:12:37;16.50;;;14.97;;
9398;SDS011;4739;49.334;8.792;2022-08-19T03:15:05;16.07;;;14.57;;
9398;SDS011;4739;49.334;8.792;2022-08-19T03:17:32;15.40;;;14.03;;
9398;SDS011;4739;49.334;8.792;2022-08-19T03:19:58;16.00;;;14.57;;
9398;SDS011;4739;49.334;8.792;2022-08-19T03:22:24;16.07;;;14.47;;
9398;SDS011;4739;49.334;8.792;2022-08-19T03:24:50;16.17;;;14.70;;
9398;SDS011;4739;49.334;8.792;2022-08-19T03:27:16;17.03;;;15.33;;
9398;SDS011;4739;49.334;8.792;2022-08-19T03:29:42;16.83;;;15.23;;
9398;SDS011;4739;49.334;8.792;2022-08-19T03:32:08;16.67;;;15.03;;
9398;SDS011;4739;49.334;8.792;2022-08-19T03:34:36;17.47;;;15.77;;
9398;SDS011;4739;49.334;8.792;2022-08-19T03:37:03;16.83;;;15.17;;
9398;SDS011;4739;49.334;8.792;2022-08-19T03:39:30;16.10;;;14.60;;
9398;SDS011;4739;49.334;8.792;2022-08-19T03:41:56;17.10;;;15.40;;
9398;SDS011;4739;49.334;8.792;2022-08-19T03:44:23;17.03;;;15.33;;
9398;SDS011;4739;49.334;8.792;2022-08-19T03:46:50;17.13;;;15.10;;
9398;SDS011;4739;49.334;8.792;2022-08-19T03:49:17;16.57;;;14.83;;
9398;SDS011;4739;49.334;8.792;2022-08-19T03:51:44;17.90;;;15.87;;
9398;SDS011;4739;49.334;8.792;2022-08-19T03:54:12;16.80;;;15.00;;
9398;SDS011;4739;49.334;8.792;2022-08-19T03:56:39;17.17;;;15.40;;
9398;SDS011;4739;49.334;8.792;2022-08-19T03:59:06;18.27;;;15.70;;
9398;SDS011;4739;49.334;8.792;2022-08-19T04:01:34;18.63;;;16.67;;
9398;SDS011;4739;49.334;8.792;2022-08-19T04:04:00;16.90;;;15.17;;
9398;SDS011;4739;49.334;8.792;2022-08-19T04:06:30;17.40;;;15.70;;
9398;SDS011;4739;49.334;8.792;2022-08-19T04:08:57;16.00;;;14.47;;
9398;SDS011;4739;49.334;8.792;2022-08-19T04:11:25;16.40;;;14.80;;
9398;SDS011;4739;49.334;8.792;2022-08-19T04:13:52;15.80;;;14.30;;
9398;SDS011;4739;49.334;8.792;2022-08-19T04:16:19;15.97;;;14.47;;
9398;SDS011;4739;49.334;8.792;2022-08-19T04:18:45;16.47;;;14.83;;
9398;SDS011;4739;49.334;8.792;2022-08-19T04:21:15;16.00;;;14.33;;
9398;SDS011;4739;49.334;8.792;2022-08-19T04:23:41;16.63;;;14.97;;
9398;SDS011;4739;49.334;8.792;2022-08-19T04:26:11;15.30;;;13.70;;
9398;SDS011;4739;49.334;8.792;2022-08-19T04:28:37;16.60;;;14.20;;
9398;SDS011;4739;49.334;8.792;2022-08-19T04:31:04;18.03;;;14.60;;
9398;SDS011;4739;49.334;8.792;2022-08-19T04:33:30;17.70;;;14.90;;
9398;SDS011;4739;49.334;8.792;2022-08-19T04:35:56;20.07;;;15.07;;
9398;SDS011;4739;49.334;8.792;2022-08-19T04:38:23;17.10;;;15.30;;
9398;SDS011;4739;49.334;8.792;2022-08-19T04:40:50;19.60;;;15.73;;
9398;SDS011;4739;49.334;8.792;2022-08-19T04:43:35;19.07;;;15.13;;
9398;SDS011;4739;49.334;8.792;2022-08-19T04:46:09;17.97;;;15.93;;
9398;SDS011;4739;49.334;8.792;2022-08-19T04:48:35;18.17;;;16.37;;
9398;SDS011;4739;49.334;8.792;2022-08-19T04:51:05;18.83;;;16.10;;
9398;SDS011;4739;49.334;8.792;2022-08-19T04:53:32;17.67;;;15.83;;
9398;SDS011;4739;49.334;8.792;2022-08-19T04:55:59;17.87;;;16.17;;
9398;SDS011;4739;49.334;8.792;2022-08-19T04:58:29;19.03;;;16.13;;
9398;SDS011;4739;49.334;8.792;2022-08-19T05:00:55;17.03;;;15.13;;
9398;SDS011;4739;49.334;8.792;2022-08-19T05:03:21;16.47;;;14.77;;
9398;SDS011;4739;49.334;8.792;2022-08-19T05:05:48;17.50;;;15.70;;
9398;SDS011;4739;49.334;8.792;2022-08-19T05:08:15;16.57;;;14.87;;
9398;SDS011;4739;49.334;8.792;2022-08-19T05:10:49;16.67;;;15.07;;
9398;SDS011;4739;49.334;8.792;2022-08-19T05:13:16;17.33;;;15.53;;
9398;SDS011;4739;49.334;8.792;2022-08-19T05:15:42;17.07;;;15.37;;
9398;SDS011;4739;49.334;8.792;2022-08-19T05:18:08;17.80;;;16.00;;
9398;SDS011;4739;49.334;8.792;2022-08-19T05:20:53;17.17;;;15.47;;
9398;SDS011;4739;49.334;8.792;2022-08-19T05:23:38;17.53;;;15.80;;
9398;SDS011;4739;49.334;8.792;2022-08-19T05:26:05;20.83;;;16.23;;
9398;SDS011;4739;49.334;8.792;2022-08-19T05:28:31;17.63;;;15.67;;
9398;SDS011;4739;49.334;8.792;2022-08-19T05:30:57;17.07;;;15.33;;
9398;SDS011;4739;49.334;8.792;2022-08-19T05:33:23;17.90;;;16.10;;
9398;SDS011;4739;49.334;8.792;2022-08-19T05:35:49;19.67;;;15.47;;
9398;SDS011;4739;49.334;8.792;2022-08-19T05:38:16;19.30;;;16.30;;
9398;SDS011;4739;49.334;8.792;2022-08-19T05:40:43;17.17;;;15.57;;
9398;SDS011;4739;49.334;8.792;2022-08-19T05:43:11;16.70;;;14.40;;
9398;SDS011;4739;49.334;8.792;2022-08-19T05:45:40;16.87;;;15.07;;
9398;SDS011;4739;49.334;8.792;2022-08-19T05:50:32;20.20;;;16.37;;
9398;SDS011;4739;49.334;8.792;2022-08-19T05:52:58;17.93;;;15.43;;
9398;SDS011;4739;49.334;8.792;2022-08-19T05:55:24;18.23;;;15.73;;
9398;SDS011;4739;49.334;8.792;2022-08-19T05:57:50;29.43;;;17.73;;
9398;SDS011;4739;49.334;8.792;2022-08-19T06:00:16;18.30;;;15.40;;
9398;SDS011;4739;49.334;8.792;2022-08-19T06:02:42;16.97;;;15.17;;
9398;SDS011;4739;49.334;8.792;2022-08-19T06:05:08;16.63;;;14.93;;
9398;SDS011;4739;49.334;8.792;2022-08-19T06:07:35;19.57;;;15.10;;
9398;SDS011;4739;49.334;8.792;2022-08-19T06:10:02;29.77;;;16.17;;
9398;SDS011;4739;49.334;8.792;2022-08-19T06:12:29;33.47;;;15.60;;
9398;SDS011;4739;49.334;8.792;2022-08-19T06:14:57;49.43;;;17.23;;
9398;SDS011;4739;49.334;8.792;2022-08-19T06:17:23;45.60;;;17.10;;
9398;SDS011;4739;49.334;8.792;2022-08-19T06:19:51;37.43;;;16.93;;
9398;SDS011;4739;49.334;8.792;2022-08-19T06:22:17;47.17;;;17.90;;
9398;SDS011;4739;49.334;8.792;2022-08-19T06:24:43;34.97;;;17.20;;
9398;SDS011;4739;49.334;8.792;2022-08-19T06:27:09;51.93;;;17.80;;
9398;SDS011;4739;49.334;8.792;2022-08-19T06:29:35;47.67;;;17.17;;
9398;SDS011;4739;49.334;8.792;2022-08-19T06:32:02;55.17;;;17.23;;
9398;SDS011;4739;49.334;8.792;2022-08-19T06:34:30;47.57;;;17.20;;
9398;SDS011;4739;49.334;8.792;2022-08-19T06:36:57;44.20;;;16.90;;
9398;SDS011;4739;49.334;8.792;2022-08-19T06:39:26;45.00;;;17.07;;
9398;SDS011;4739;49.334;8.792;2022-08-19T06:41:53;40.37;;;16.43;;
9398;SDS011;4739;49.334;8.792;2022-08-19T06:44:22;37.13;;;16.73;;
9398;SDS011;4739;49.334;8.792;2022-08-19T06:46:48;30.90;;;15.40;;
9398;SDS011;4739;49.334;8.792;2022-08-19T06:49:15;32.07;;;15.70;;
9398;SDS011;4739;49.334;8.792;2022-08-19T06:51:41;18.37;;;15.03;;
9398;SDS011;4739;49.334;8.792;2022-08-19T06:54:08;15.83;;;14.03;;
9398;SDS011;4739;49.334;8.792;2022-08-19T06:56:34;16.37;;;14.67;;
9398;SDS011;4739;49.334;8.792;2022-08-19T06:59:05;16.63;;;14.93;;
9398;SDS011;4739;49.334;8.792;2022-08-19T07:01:38;16.43;;;14.67;;
9398;SDS011;4739;49.334;8.792;2022-08-19T07:04:05;14.63;;;13.13;;
9398;SDS011;4739;49.334;8.792;2022-08-19T07:06:32;18.53;;;15.27;;
9398;SDS011;4739;49.334;8.792;2022-08-19T07:08:58;15.63;;;14.03;;
9398;SDS011;4739;49.334;8.792;2022-08-19T07:11:24;15.93;;;14.33;;
9398;SDS011;4739;49.334;8.792;2022-08-19T07:13:50;16.70;;;15.03;;
9398;SDS011;4739;49.334;8.792;2022-08-19T07:16:17;16.03;;;14.43;;
9398;SDS011;4739;49.334;8.792;2022-08-19T07:18:47;17.20;;;15.43;;
9398;SDS011;4739;49.334;8.792;2022-08-19T07:21:18;15.97;;;14.30;;
9398;SDS011;4739;49.334;8.792;2022-08-19T07:23:45;16.13;;;14.53;;
9398;SDS011;4739;49.334;8.792;2022-08-19T07:26:13;16.37;;;14.77;;
9398;SDS011;4739;49.334;8.792;2022-08-19T07:28:40;17.03;;;15.43;;
9398;SDS011;4739;49.334;8.792;2022-08-19T07:31:09;15.93;;;14.33;;
9398;SDS011;4739;49.334;8.792;2022-08-19T07:33:35;16.47;;;14.67;;
9398;SDS011;4739;49.334;8.792;2022-08-19T07:36:02;15.37;;;13.77;;
9398;SDS011;4739;49.334;8.792;2022-08-19T07:38:28;15.87;;;14.37;;
9398;SDS011;4739;49.334;8.792;2022-08-19T07:40:54;16.23;;;14.67;;
9398;SDS011;4739;49.334;8.792;2022-08-19T07:43:20;15.47;;;13.87;;
9398;SDS011;4739;49.334;8.792;2022-08-19T07:45:49;16.17;;;14.57;;
9398;SDS011;4739;49.334;8.792;2022-08-19T07:48:15;15.87;;;14.27;;
9398;SDS011;4739;49.334;8.792;2022-08-19T07:50:41;14.77;;;13.27;;
9398;SDS011;4739;49.334;8.792;2022-08-19T07:53:07;14.70;;;13.23;;
9398;SDS011;4739;49.334;8.792;2022-08-19T07:55:33;17.30;;;14.07;;
9398;SDS011;4739;49.334;8.792;2022-08-19T07:57:59;14.27;;;12.77;;
9398;SDS011;4739;49.334;8.792;2022-08-19T08:00:25;15.47;;;13.93;;
9398;SDS011;4739;49.334;8.792;2022-08-19T08:02:52;16.10;;;14.50;;
9398;SDS011;4739;49.334;8.792;2022-08-19T08:05:18;14.67;;;13.27;;
9398;SDS011;4739;49.334;8.792;2022-08-19T08:08:03;15.77;;;13.77;;
9398;SDS011;4739;49.334;8.792;2022-08-19T08:11:07;15.20;;;13.80;;
9398;SDS011;4739;49.334;8.792;2022-08-19T08:13:34;14.90;;;13.40;;
9398;SDS011;4739;49.334;8.792;2022-08-19T08:16:01;14.50;;;13.20;;
9398;SDS011;4739;49.334;8.792;2022-08-19T08:18:27;14.77;;;13.30;;
9398;SDS011;4739;49.334;8.792;2022-08-19T08:20:53;13.70;;;12.10;;
9398;SDS011;4739;49.334;8.792;2022-08-19T08:23:19;13.73;;;12.43;;
9398;SDS011;4739;49.334;8.792;2022-08-19T08:25:50;14.90;;;12.33;;
9398;SDS011;4739;49.334;8.792;2022-08-19T08:28:16;13.77;;;12.37;;
9398;SDS011;4739;49.334;8.792;2022-08-19T08:30:42;12.67;;;11.37;;
9398;SDS011;4739;49.334;8.792;2022-08-19T08:33:10;13.03;;;11.73;;
9398;SDS011;4739;49.334;8.792;2022-08-19T08:35:37;11.30;;;10.30;;
9398;SDS011;4739;49.334;8.792;2022-08-19T08:38:03;11.73;;;10.60;;
9398;SDS011;4739;49.334;8.792;2022-08-19T08:40:38;11.50;;;10.30;;
9398;SDS011;4739;49.334;8.792;2022-08-19T08:43:14;11.43;;;10.30;;
9398;SDS011;4739;49.334;8.792;2022-08-19T08:45:47;11.97;;;10.77;;
9398;SDS011;4739;49.334;8.792;2022-08-19T08:48:18;11.23;;;10.00;;
9398;SDS011;4739;49.334;8.792;2022-08-19T08:50:46;10.63;;;9.53;;
9398;SDS011;4739;49.334;8.792;2022-08-19T08:53:13;10.93;;;9.93;;
9398;SDS011;4739;49.334;8.792;2022-08-19T08:55:40;10.23;;;9.30;;
9398;SDS011;4739;49.334;8.792;2022-08-19T08:58:09;10.95;;;9.85;;
9398;SDS011;4739;49.334;8.792;2022-08-19T09:00:43;10.27;;;9.30;;
9398;SDS011;4739;49.334;8.792;2022-08-19T09:03:14;10.18;;;9.15;;
9398;SDS011;4739;49.334;8.792;2022-08-19T09:08:19;10.45;;;9.45;;
9398;SDS011;4739;49.334;8.792;2022-08-19T09:10:55;10.50;;;9.40;;
9398;SDS011;4739;49.334;8.792;2022-08-19T09:16:05;10.07;;;9.07;;
9398;SDS011;4739;49.334;8.792;2022-08-19T09:18:39;9.50;;;8.55;;
9398;SDS011;4739;49.334;8.792;2022-08-19T09:21:05;9.88;;;8.90;;
9398;SDS011;4739;49.334;8.792;2022-08-19T09:23:32;9.20;;;8.13;;
9398;SDS011;4739;49.334;8.792;2022-08-19T09:25:58;9.23;;;8.32;;
9398;SDS011;4739;49.334;8.792;2022-08-19T09:28:24;7.85;;;7.15;;
9398;SDS011;4739;49.334;8.792;2022-08-19T09:30:50;8.63;;;7.80;;
9398;SDS011;4739;49.334;8.792;2022-08-19T09:33:16;9.02;;;8.13;;
9398;SDS011;4739;49.334;8.792;2022-08-19T09:35:43;10.90;;;8.25;;
9398;SDS011;4739;49.334;8.792;2022-08-19T09:38:09;9.18;;;8.18;;
9398;SDS011;4739;49.334;8.792;2022-08-19T09:40:35;8.55;;;7.82;;
9398;SDS011;4739;49.334;8.792;2022-08-19T09:43:01;10.68;;;9.10;;
9398;SDS011;4739;49.334;8.792;2022-08-19T09:45:27;9.90;;;8.93;;
9398;SDS011;4739;49.334;8.792;2022-08-19T09:47:54;8.82;;;7.47;;
9398;SDS011;4739;49.334;8.792;2022-08-19T09:50:20;8.77;;;7.63;;
9398;SDS011;4739;49.334;8.792;2022-08-19T09:52:46;6.88;;;6.28;;
9398;SDS011;4739;49.334;8.792;2022-08-19T09:55:12;7.13;;;6.53;;
9398;SDS011;4739;49.334;8.792;2022-08-19T09:57:38;6.97;;;6.28;;
9398;SDS011;4739;49.334;8.792;2022-08-19T10:00:06;6.75;;;6.13;;
9398;SDS011;4739;49.334;8.792;2022-08-19T10:02:32;6.40;;;5.90;;
9398;SDS011;4739;49.334;8.792;2022-08-19T10:04:58;8.18;;;6.10;;
9398;SDS011;4739;49.334;8.792;2022-08-19T10:07:43;6.68;;;6.07;;
9398;SDS011;4739;49.334;8.792;2022-08-19T10:10:09;7.22;;;6.03;;
9398;SDS011;4739;49.334;8.792;2022-08-19T10:12:35;7.10;;;6.40;;
9398;SDS011;4739;49.334;8.792;2022-08-19T10:15:01;6.50;;;5.90;;
9398;SDS011;4739;49.334;8.792;2022-08-19T10:17:28;7.03;;;6.43;;
9398;SDS011;4739;49.334;8.792;2022-08-19T10:19:54;6.50;;;5.90;;
9398;SDS011;4739;49.334;8.792;2022-08-19T10:22:20;6.90;;;6.22;;
9398;SDS011;4739;49.334;8.792;2022-08-19T10:24:46;6.47;;;5.88;;
9398;SDS011;4739;49.334;8.792;2022-08-19T10:27:12;6.55;;;6.00;;
9398;SDS011;4739;49.334;8.792;2022-08-19T10:29:39;6.72;;;6.10;;
9398;SDS011;4739;49.334;8.792;2022-08-19T10:32:06;6.47;;;5.88;;
9398;SDS011;4739;49.334;8.792;2022-08-19T10:34:33;6.68;;;6.00;;
9398;SDS011;4739;49.334;8.792;2022-08-19T10:37:00;5.95;;;5.35;;
9398;SDS011;4739;49.334;8.792;2022-08-19T10:39:26;6.00;;;5.47;;
9398;SDS011;4739;49.334;8.792;2022-08-19T10:41:54;4.63;;;4.22;;
9398;SDS011;4739;49.334;8.792;2022-08-19T10:44:21;4.55;;;4.13;;
9398;SDS011;4739;49.334;8.792;2022-08-19T10:46:48;7.35;;;4.72;;
9398;SDS011;4739;49.334;8.792;2022-08-19T10:49:15;4.75;;;4.13;;
9398;SDS011;4739;49.334;8.792;2022-08-19T10:51:41;5.35;;;4.85;;
9398;SDS011;4739;49.334;8.792;2022-08-19T10:54:26;5.15;;;4.38;;
9398;SDS011;4739;49.334;8.792;2022-08-19T10:57:12;4.65;;;4.18;;
9398;SDS011;4739;49.334;8.792;2022-08-19T10:59:38;4.35;;;3.92;;
9398;SDS011;4739;49.334;8.792;2022-08-19T11:02:06;4.30;;;3.90;;
9398;SDS011;4739;49.334;8.792;2022-08-19T11:04:34;5.28;;;4.80;;
9398;SDS011;4739;49.334;8.792;2022-08-19T11:07:00;5.53;;;4.70;;
9398;SDS011;4739;49.334;8.792;2022-08-19T11:09:28;4.82;;;4.43;;
9398;SDS011;4739;49.334;8.792;2022-08-19T11:11:54;4.47;;;4.07;;
9398;SDS011;4739;49.334;8.792;2022-08-19T11:14:21;4.35;;;3.97;;
9398;SDS011;4739;49.334;8.792;2022-08-19T11:16:49;4.57;;;4.15;;
9398;SDS011;4739;49.334;8.792;2022-08-19T11:19:16;3.97;;;3.65;;
9398;SDS011;4739;49.334;8.792;2022-08-19T11:21:44;4.55;;;4.00;;
9398;SDS011;4739;49.334;8.792;2022-08-19T11:24:13;5.30;;;3.92;;
9398;SDS011;4739;49.334;8.792;2022-08-19T11:26:40;6.28;;;4.25;;
9398;SDS011;4739;49.334;8.792;2022-08-19T11:29:07;4.45;;;4.07;;
9398;SDS011;4739;49.334;8.792;2022-08-19T11:31:36;4.57;;;3.88;;
9398;SDS011;4739;49.334;8.792;2022-08-19T11:34:05;4.85;;;4.50;;
9398;SDS011;4739;49.334;8.792;2022-08-19T11:36:31;4.97;;;4.60;;
9398;SDS011;4739;49.334;8.792;2022-08-19T11:38:58;5.18;;;4.22;;
9398;SDS011;4739;49.334;8.792;2022-08-19T11:41:24;4.97;;;4.30;;
9398;SDS011;4739;49.334;8.792;2022-08-19T11:43:50;4.70;;;4.30;;
9398;SDS011;4739;49.334;8.792;2022-08-19T11:46:17;6.50;;;4.32;;
9398;SDS011;4739;49.334;8.792;2022-08-19T11:48:44;5.47;;;5.07;;
9398;SDS011;4739;49.334;8.792;2022-08-19T11:51:11;5.88;;;5.15;;
9398;SDS011;4739;49.334;8.792;2022-08-19T11:53:38;5.57;;;5.07;;
9398;SDS011;4739;49.334;8.792;2022-08-19T11:56:04;6.00;;;5.30;;
9398;SDS011;4739;49.334;8.792;2022-08-19T11:58:31;4.55;;;4.25;;
9398;SDS011;4739;49.334;8.792;2022-08-19T12:00:57;6.47;;;5.90;;
9398;SDS011;4739;49.334;8.792;2022-08-19T12:03:23;7.20;;;4.85;;
9398;SDS011;4739;49.334;8.792;2022-08-19T12:05:49;5.40;;;5.00;;
9398;SDS011;4739;49.334;8.792;2022-08-19T12:08:16;5.65;;;5.15;;
9398;SDS011;4739;49.334;8.792;2022-08-19T12:10:42;5.93;;;5.35;;
9398;SDS011;4739;49.334;8.792;2022-08-19T12:13:09;5.78;;;5.28;;
9398;SDS011;4739;49.334;8.792;2022-08-19T12:15:36;6.00;;;5.43;;
9398;SDS011;4739;49.334;8.792;2022-08-19T12:18:02;6.53;;;5.47;;
9398;SDS011;4739;49.334;8.792;2022-08-19T12:20:28;6.20;;;5.20;;
9398;SDS011;4739;49.334;8.792;2022-08-19T12:22:55;6.00;;;5.25;;
9398;SDS011;4739;49.334;8.792;2022-08-19T12:25:21;6.53;;;6.03;;
9398;SDS011;4739;49.334;8.792;2022-08-19T12:27:47;5.78;;;5.28;;
9398;SDS011;4739;49.334;8.792;2022-08-19T12:30:14;5.47;;;5.05;;
9398;SDS011;4739;49.334;8.792;2022-08-19T12:32:40;5.75;;;5.30;;
9398;SDS011;4739;49.334;8.792;2022-08-19T12:35:06;6.30;;;5.15;;
9398;SDS011;4739;49.334;8.792;2022-08-19T12:37:34;5.65;;;4.80;;
9398;SDS011;4739;49.334;8.792;2022-08-19T12:40:00;5.22;;;4.82;;
9398;SDS011;4739;49.334;8.792;2022-08-19T12:42:27;5.50;;;5.00;;
9398;SDS011;4739;49.334;8.792;2022-08-19T12:44:55;5.95;;;5.55;;
9398;SDS011;4739;49.334;8.792;2022-08-19T12:47:21;5.93;;;5.28;;
9398;SDS011;4739;49.334;8.792;2022-08-19T12:49:48;6.20;;;5.70;;
9398;SDS011;4739;49.334;8.792;2022-08-19T12:52:14;6.10;;;5.70;;
9398;SDS011;4739;49.334;8.792;2022-08-19T12:54:41;5.78;;;5.28;;
9398;SDS011;4739;49.334;8.792;2022-08-19T12:57:08;6.47;;;5.97;;
9398;SDS011;4739;49.334;8.792;2022-08-19T12:59:35;6.55;;;5.97;;
9398;SDS011;4739;49.334;8.792;2022-08-19T13:02:02;6.13;;;5.72;;
9398;SDS011;4739;49.334;8.792;2022-08-19T13:04:30;6.78;;;6.20;;
9398;SDS011;4739;49.334;8.792;2022-08-19T13:06:56;7.63;;;6.93;;
9398;SDS011;4739;49.334;8.792;2022-08-19T13:09:23;7.18;;;6.45;;
9398;SDS011;4739;49.334;8.792;2022-08-19T13:11:49;7.18;;;6.32;;
9398;SDS011;4739;49.334;8.792;2022-08-19T13:14:15;7.55;;;6.75;;
9398;SDS011;4739;49.334;8.792;2022-08-19T13:16:41;7.05;;;6.47;;
9398;SDS011;4739;49.334;8.792;2022-08-19T13:19:08;7.50;;;6.80;;
9398;SDS011;4739;49.334;8.792;2022-08-19T13:21:34;6.68;;;6.07;;
9398;SDS011;4739;49.334;8.792;2022-08-19T13:24:01;6.57;;;5.82;;
9398;SDS011;4739;49.334;8.792;2022-08-19T13:26:27;6.20;;;5.70;;
9398;SDS011;4739;49.334;8.792;2022-08-19T13:28:53;6.50;;;6.00;;
9398;SDS011;4739;49.334;8.792;2022-08-19T13:31:39;6.60;;;6.00;;
9398;SDS011;4739;49.334;8.792;2022-08-19T13:34:29;5.65;;;5.28;;
9398;SDS011;4739;49.334;8.792;2022-08-19T13:36:55;6.68;;;5.80;;
9398;SDS011;4739;49.334;8.792;2022-08-19T13:39:21;6.13;;;5.72;;
9398;SDS011;4739;49.334;8.792;2022-08-19T13:41:48;6.90;;;6.25;;
9398;SDS011;4739;49.334;8.792;2022-08-19T13:44:15;5.80;;;5.28;;
9398;SDS011;4739;49.334;8.792;2022-08-19T13:46:43;5.95;;;5.45;;
9398;SDS011;4739;49.334;8.792;2022-08-19T13:49:11;6.05;;;5.45;;
9398;SDS011;4739;49.334;8.792;2022-08-19T13:51:38;5.82;;;5.30;;
9398;SDS011;4739;49.334;8.792;2022-08-19T13:54:05;5.63;;;5.22;;
9398;SDS011;4739;49.334;8.792;2022-08-19T13:56:31;5.97;;;5.43;;
9398;SDS011;4739;49.334;8.792;2022-08-19T13:58:57;5.75;;;5.25;;
9398;SDS011;4739;49.334;8.792;2022-08-19T14:01:23;5.57;;;4.90;;
9398;SDS011;4739;49.334;8.792;2022-08-19T14:03:49;4.85;;;4.53;;
9398;SDS011;4739;49.334;8.792;2022-08-19T14:06:16;5.50;;;5.00;;
9398;SDS011;4739;49.334;8.792;2022-08-19T14:08:42;5.80;;;4.82;;
9398;SDS011;4739;49.334;8.792;2022-08-19T14:11:08;5.68;;;5.28;;
9398;SDS011;4739;49.334;8.792;2022-08-19T14:13:34;5.30;;;4.80;;
9398;SDS011;4739;49.334;8.792;2022-08-19T14:16:01;5.35;;;4.85;;
9398;SDS011;4739;49.334;8.792;2022-08-19T14:18:27;5.35;;;4.90;;
9398;SDS011;4739;49.334;8.792;2022-08-19T14:20:53;4.28;;;3.97;;
9398;SDS011;4739;49.334;8.792;2022-08-19T14:23:20;4.82;;;4.43;;
9398;SDS011;4739;49.334;8.792;2022-08-19T14:25:46;4.72;;;4.43;;
9398;SDS011;4739;49.334;8.792;2022-08-19T14:28:12;4.93;;;4.53;;
9398;SDS011;4739;49.334;8.792;2022-08-19T14:30:38;5.20;;;4.80;;
9398;SDS011;4739;49.334;8.792;2022-08-19T14:33:04;4.95;;;4.57;;
9398;SDS011;4739;49.334;8.792;2022-08-19T14:35:32;4.90;;;4.50;;
9398;SDS011;4739;49.334;8.792;2022-08-19T14:37:59;4.88;;;4.47;;
9398;SDS011;4739;49.334;8.792;2022-08-19T14:40:26;4.88;;;4.47;;
9398;SDS011;4739;49.334;8.792;2022-08-19T14:42:53;4.53;;;4.05;;
9398;SDS011;4739;49.334;8.792;2022-08-19T14:45:24;4.47;;;4.18;;
9398;SDS011;4739;49.334;8.792;2022-08-19T14:47:50;4.50;;;4.10;;
9398;SDS011;4739;49.334;8.792;2022-08-19T14:50:17;5.00;;;4.60;;
9398;SDS011;4739;49.334;8.792;2022-08-19T14:52:43;5.22;;;4.75;;
9398;SDS011;4739;49.334;8.792;2022-08-19T14:55:09;4.70;;;4.40;;
9398;SDS011;4739;49.334;8.792;2022-08-19T14:57:35;4.65;;;4.30;;
9398;SDS011;4739;49.334;8.792;2022-08-19T15:00:01;4.70;;;4.25;;
9398;SDS011;4739;49.334;8.792;2022-08-19T15:02:27;4.85;;;4.38;;
9398;SDS011;4739;49.334;8.792;2022-08-19T15:04:53;5.68;;;5.15;;
9398;SDS011;4739;49.334;8.792;2022-08-19T15:07:20;5.00;;;4.60;;
9398;SDS011;4739;49.334;8.792;2022-08-19T15:09:48;4.65;;;4.25;;